createdAt,value
2018-08-24T15:48:34.228Z,100477.80
2018-08-24T15:51:03.134Z,100481.48
2018-08-24T15:53:32.028Z,100486.35
2018-08-24T15:56:01.144Z,100482.34
2018-08-24T15:58:29.867Z,100480.49
2018-08-24T16:00:58.705Z,100490.94
2018-08-24T16:03:27.469Z,100484.64
2018-08-24T16:05:56.715Z,100488.16
2018-08-24T16:08:25.371Z,100492.47
2018-08-24T16:10:54.392Z,100496.34
2018-08-24T16:13:22.950Z,100486.43
2018-08-24T16:15:51.812Z,100485.14
2018-08-24T16:18:22.511Z,100484.19
2018-08-24T16:20:51.999Z,100491.97
2018-08-24T16:23:20.764Z,100495.66
2018-08-24T16:25:49.875Z,100499.30
2018-08-24T16:28:18.982Z,100493.67
2018-08-24T16:30:47.819Z,100497.02
2018-08-24T16:33:17.408Z,100489.16
2018-08-24T16:35:46.375Z,100492.72
2018-08-24T16:38:15.508Z,100496.93
2018-08-24T16:40:44.496Z,100491.33
2018-08-24T16:43:13.862Z,100482.42
2018-08-24T16:45:42.450Z,100486.87
2018-08-24T16:48:11.252Z,100479.70
2018-08-24T16:50:40.902Z,100483.07
2018-08-24T16:53:09.655Z,100485.41
2018-08-24T16:55:38.600Z,100482.84
2018-08-24T16:58:07.263Z,100483.86
2018-08-24T17:00:35.980Z,100482.84
2018-08-24T17:03:04.952Z,100482.17
2018-08-24T17:05:33.661Z,100489.31
2018-08-24T17:08:02.303Z,100482.62
2018-08-24T17:10:31.443Z,100489.38
2018-08-24T17:13:00.336Z,100492.62
2018-08-24T17:15:29.225Z,100494.28
2018-08-24T17:17:57.908Z,100488.05
2018-08-24T17:20:26.657Z,100485.34
2018-08-24T17:22:55.719Z,100489.02
2018-08-24T17:25:24.361Z,100491.88
2018-08-24T17:27:53.149Z,100487.34
2018-08-24T17:30:22.152Z,100488.28
2018-08-24T17:32:50.825Z,100497.09
2018-08-24T17:35:19.510Z,100496.87
2018-08-24T17:37:48.196Z,100505.36
2018-08-24T17:40:16.712Z,100497.86
2018-08-24T17:42:45.423Z,100503.89
2018-08-24T17:45:14.153Z,100501.92
2018-08-24T17:47:42.999Z,100504.65
2018-08-24T17:50:12.444Z,100507.72
2018-08-24T17:52:41.396Z,100503.02
2018-08-24T17:55:10.240Z,100507.95
2018-08-24T17:57:41.199Z,100510.58
2018-08-24T18:00:10.265Z,100513.37
2018-08-24T18:02:39.157Z,100519.56
2018-08-24T18:05:08.145Z,100533.48
2018-08-24T18:07:36.788Z,100534.06
2018-08-24T18:10:05.637Z,100536.84
2018-08-24T18:12:34.321Z,100526.98
2018-08-24T18:15:03.497Z,100532.82
2018-08-24T18:17:33.049Z,100537.42
2018-08-24T18:20:02.675Z,100534.83
2018-08-24T18:22:31.758Z,100536.98
2018-08-24T18:25:01.241Z,100538.99
2018-08-24T18:27:30.349Z,100530.19
2018-08-24T18:29:59.710Z,100538.50
2018-08-24T18:32:28.547Z,100541.77
2018-08-24T18:34:57.543Z,100549.45
2018-08-24T18:37:26.470Z,100556.03
2018-08-24T18:39:55.740Z,100561.50
2018-08-24T18:42:24.603Z,100565.33
2018-08-24T18:44:53.201Z,100566.71
2018-08-24T18:47:21.900Z,100579.61
2018-08-24T18:49:50.756Z,100574.77
2018-08-24T18:52:19.407Z,100581.61
2018-08-24T18:54:47.942Z,100588.30
2018-08-24T18:57:16.455Z,100593.40
2018-08-24T18:59:45.481Z,100591.48
2018-08-24T19:02:14.424Z,100595.06
2018-08-24T19:04:43.140Z,100586.05
2018-08-24T19:07:11.824Z,100587.80
2018-08-24T19:09:41.503Z,100590.38
2018-08-24T19:12:15.340Z,100599.16
2018-08-24T19:14:44.188Z,100585.27
2018-08-24T19:21:31.762Z,100592.46
2018-08-24T19:24:00.928Z,100598.10
2018-08-24T19:26:30.172Z,100608.30
2018-08-24T19:29:04.330Z,100607.91
2018-08-24T19:31:33.562Z,100603.56
2018-08-24T19:34:02.457Z,100605.29
2018-08-24T19:36:31.421Z,100605.54
2018-08-24T19:39:00.903Z,100609.61
2018-08-24T19:41:35.144Z,100611.67
2018-08-24T19:44:04.027Z,100609.23
2018-08-24T19:46:32.918Z,100611.46
2018-08-24T19:49:07.857Z,100606.72
2018-08-24T19:51:36.525Z,100606.72
2018-08-24T19:54:05.378Z,100607.05
2018-08-24T19:56:34.243Z,100605.90
2018-08-24T19:59:06.411Z,100606.37
2018-08-24T20:01:36.057Z,100603.92
2018-08-24T20:04:06.065Z,100598.50
2018-08-24T20:06:40.976Z,100604.73
2018-08-24T20:09:16.749Z,100609.48
2018-08-24T20:11:53.296Z,100603.69
2018-08-24T20:14:27.272Z,100602.29
2018-08-24T20:17:01.455Z,100609.45
2018-08-24T20:19:30.992Z,100613.05
2018-08-24T20:21:59.832Z,100606.22
2018-08-24T20:24:29.162Z,100603.78
2018-08-24T20:26:57.888Z,100610.27
2018-08-24T20:29:26.745Z,100606.09
2018-08-24T20:31:56.460Z,100603.66
2018-08-24T20:34:25.609Z,100613.36
2018-08-24T20:36:54.793Z,100609.44
2018-08-24T20:39:23.890Z,100614.42
2018-08-24T20:41:52.872Z,100615.19
2018-08-24T20:44:22.083Z,100623.75
2018-08-24T20:46:50.886Z,100628.14
2018-08-24T20:49:22.744Z,100626.41
2018-08-24T20:51:52.435Z,100629.53
2018-08-24T20:54:21.683Z,100628.64
2018-08-24T20:56:51.639Z,100623.45
2018-08-24T20:59:20.813Z,100625.84
2018-08-24T21:01:52.240Z,100624.48
2018-08-24T21:04:23.338Z,100626.77
2018-08-24T21:06:53.577Z,100624.13
2018-08-24T21:09:26.327Z,100629.34
2018-08-24T21:11:55.764Z,100630.73
2018-08-24T21:14:25.408Z,100634.97
2018-08-24T21:16:56.127Z,100635.58
2018-08-24T21:22:07.985Z,100629.01
2018-08-24T21:24:40.213Z,100633.53
2018-08-24T21:27:12.696Z,100633.27
2018-08-24T21:29:44.413Z,100630.58
2018-08-24T21:32:13.201Z,100635.70
2018-08-24T21:34:43.711Z,100628.18
2018-08-24T21:37:13.739Z,100639.03
2018-08-24T21:39:43.876Z,100634.66
2018-08-24T21:42:16.514Z,100635.16
2018-08-24T21:44:46.647Z,100636.98
2018-08-24T21:47:15.601Z,100632.24
2018-08-24T21:49:46.204Z,100632.96
2018-08-24T21:52:18.605Z,100641.16
2018-08-24T21:54:49.470Z,100645.77
2018-08-24T21:57:19.332Z,100645.80
2018-08-24T21:59:49.901Z,100656.17
2018-08-24T22:02:19.970Z,100652.70
2018-08-24T22:04:50.889Z,100439.70
2018-08-24T22:07:20.683Z,100648.64
2018-08-24T22:09:50.644Z,100444.27
2018-08-24T22:12:26.291Z,100655.08
2018-08-24T22:14:55.003Z,100648.27
2018-08-24T22:17:29.007Z,100651.14
2018-08-24T22:20:04.124Z,100651.34
2018-08-24T22:22:36.797Z,100660.14
2018-08-24T22:25:07.556Z,100664.19
2018-08-24T22:27:38.965Z,100662.83
2018-08-24T22:30:09.516Z,100665.14
2018-08-24T22:32:38.993Z,100665.00
2018-08-24T22:35:09.617Z,100664.81
2018-08-24T22:37:38.827Z,100658.90
2018-08-24T22:40:08.139Z,100657.95
2018-08-24T22:42:38.388Z,100648.97
2018-08-24T22:45:11.117Z,100652.44
2018-08-24T22:47:40.656Z,100650.98
2018-08-24T22:50:10.141Z,100647.25
2018-08-24T22:52:39.992Z,100643.97
2018-08-24T22:55:10.892Z,100644.48
2018-08-24T22:57:39.595Z,100633.75
2018-08-24T23:00:11.141Z,100639.51
2018-08-24T23:02:40.118Z,100631.67
2018-08-24T23:05:08.484Z,100634.17
2018-08-24T23:07:38.576Z,100636.70
2018-08-24T23:10:10.745Z,100637.60
2018-08-24T23:12:42.891Z,100636.38
2018-08-24T23:15:11.511Z,100641.69
2018-08-24T23:17:42.045Z,100640.09
2018-08-24T23:20:10.904Z,100640.41
2018-08-24T23:22:40.127Z,100636.14
2018-08-24T23:25:08.704Z,100643.52
2018-08-24T23:27:39.227Z,100632.84
2018-08-24T23:30:09.312Z,100634.54
2018-08-24T23:32:39.080Z,100636.49
2018-08-24T23:35:08.061Z,100637.39
2018-08-24T23:37:37.119Z,100635.15
2018-08-24T23:40:06.815Z,100630.30
2018-08-24T23:42:35.782Z,100628.78
2018-08-24T23:45:08.223Z,100627.20
2018-08-24T23:47:43.516Z,100622.36
2018-08-24T23:50:12.608Z,100621.29
2018-08-24T23:52:41.359Z,100618.83
2018-08-24T23:55:11.118Z,100609.72
2018-08-24T23:57:39.962Z,100610.66
